x

Port Orford - 15 Nm West Of Port Orford, Or (46015) Wave Buoy

6:50am - Sat 23rd May 2015 All times are PDT. -7 hours from GMT.

  • Sig Wave height 5.2ft
  • Swell Direction
  • Peak Period 9s
  • Average Period 7s
  • Wind
    9mph, 11mph gusts
  • Sea Temp 53°f
  • Air Temp 51°f
  • Sea Pressure 1022.2mb
  • Port Orford - 15 Nm West Of Port Orford, Or
  • Port Orford - 15 Nm West Of Port Orford, Or

More Historic Weather Station data

Upgrade to MSW Pro to gain access to the past 30 days of data for over 8000 Wavebouys and Weather Stations around the globe.

Join Pro

Comparision Forecast

View Surf forecast
   
Sat 05/23 6:50am 5ft 9s 7s 9 11 mph 1022.2mb 53f 51f
5:50am 5ft 8s 6s 13
mph
1021.7mb 53f 52f
4:50am 5ft 8s 6s 9 11 mph 1021.7mb 53f 53f
3:50am 5ft 8s 6s 9 11 mph 1021.7mb 53f 54f
2:50am 5ft 8s 6s 9
mph
1021.7mb 53f 53f
1:50am 5.5ft 8s 6s 9 11 mph 1021.5mb 53f 53f
12:50am 5.5ft 8s 6s 9 11 mph 1021.6mb 53f 53f
Fri 05/22 11:50pm 5.5ft 8s 6s 13 18 mph 1021.5mb 53f 54f
10:50pm 5.5ft 8s 6s 13 16 mph 1021.2mb 53f 54f
9:50pm 5.5ft 9s 6s 11 13 mph 1020.7mb 53f 53f
8:50pm 6ft 9s 7s 11 13 mph 1020.1mb 53f 53f
7:50pm 6ft 8s 6s 13
mph
1019.9mb 53f 53f
6:50pm 5ft 11s 6s 13
mph
1019.8mb 53f 54f
5:50pm 5.5ft 8s 6s 13 16 mph 1019.9mb 53f 54f
4:50pm 5.5ft 9s 6s 13 16 mph 1019.7mb 54f 54f
3:50pm 5.5ft 11s 7s 13 16 mph 1019.5mb 54f 54f
2:50pm 5ft 9s 6s 11 16 mph 1019.7mb 54f 54f
1:50pm 5.5ft 8s 6s 11 13 mph 1019.7mb 54f 55f
12:50pm 5ft 8s 6s 9 11 mph 1019.6mb 53f 54f
11:50am 6ft 11s 7s 7 9 mph 1019.4mb 53f 53f
10:50am 6ft 8s 7s 7 9 mph 1019mb 53f 53f
9:50am 6ft 8s 7s 7 9 mph 1018.6mb 53f 53f
8:50am 6ft 8s 7s 7 9 mph 1018.4mb 53f 53f
7:50am 6ft 8s 7s 7 9 mph 1018.1mb 53f 53f
6:50am 6ft 11s 7s 9
mph
1017.5mb 53f 53f
5:50am 5.5ft 10s 7s 7
mph
1017.1mb 52f 53f
4:50am 6ft 8s 7s 7 9 mph 1016.7mb 52f 52f
3:50am 5ft 8s 7s 9
mph
1016.5mb 52f 53f
2:50am 5.5ft 8s 7s 7 9 mph 1016.5mb 52f 53f
1:50am 5.5ft 11s 7s 9 11 mph 1016.4mb 52f 53f
12:50am 5ft 11s 7s 7 9 mph 1016.2mb 52f 53f
Thu 05/21 11:50pm 5.5ft 10s 7s 7
mph
1016.1mb 53f 53f
10:50pm 6ft 11s 7s 7
mph
1016.3mb 53f 53f
9:50pm 5.5ft 7s 7s 7
mph
1016.1mb 52f 53f
8:50pm 6.5ft 8s 7s 7 9 mph 1015.4mb 53f 53f
7:50pm 6ft 7s 7s 7 9 mph 1014.8mb 53f 53f
6:50pm 6.5ft 10s 7s 7 9 mph 1014.8mb 53f 53f
5:50pm 6.5ft 10s 7s 9 11 mph 1014.7mb 53f 54f
4:50pm 6ft 7s 7s 11 13 mph 1014.6mb 53f 54f
3:50pm 6ft 7s 7s 9 11 mph 1014.6mb 53f 54f
2:50pm 5.5ft 12s 7s 9
mph
1014.6mb 52f 53f
1:50pm 5ft 11s 7s 7 9 mph 1014.7mb 52f 53f
12:50pm 6ft 12s 7s 9 11 mph 1014.7mb 52f 53f
11:50am 5.5ft 12s 6s 7
mph
1014.9mb 52f 53f
10:50am 5ft 8s 6s 4 7 mph 1014.6mb 52f 53f
9:50am 5.5ft 12s 6s 7
mph
1014.4mb 53f 53f
8:50am 6ft 12s 7s 4
mph
1014.4mb 53f 53f
7:50am 6ft 12s 6s 4 7 mph 1014.2mb 52f 53f
6:50am 6ft 12s 6s 7 9 mph 1013.8mb 53f 53f
5:50am 6ft 7s 6s 7 9 mph 1013.6mb 53f 53f
4:50am 6.5ft 6s 6s 9 11 mph 1013.7mb 53f 52f
3:50am 6ft 13s 6s 9 11 mph 1013.6mb 53f 52f
2:50am 5.5ft 13s 6s 9 11 mph 1013.6mb 53f 52f
1:50am 5.5ft 13s 6s 9 11 mph 1013.7mb 53f 53f
12:50am 5ft 13s 6s 9 11 mph 1014mb 53f 52f
Wed 05/20 11:50pm 5.5ft 13s 6s 11 13 mph 1014.3mb 54f 52f
10:50pm 5ft 6s 6s 11 13 mph 1014.4mb 54f 52f
9:50pm 6ft 6s 6s 9 11 mph 1014.1mb 53f 52f
8:50pm 6ft 6s 6s 7 9 mph 1013.8mb 53f 52f
7:50pm 5.5ft 13s 6s 7 9 mph 1013.8mb 52f 53f
6:50pm 6ft 6s 6s 11 13 mph 1013.6mb 53f 53f
5:50pm 6ft 6s 6s 13 16 mph 1013.6mb 52f 53f
4:50pm 6ft 14s 6s 13 18 mph 1013.5mb 52f 53f
3:50pm 5.5ft 6s 5s 16 18 mph 1013.7mb 52f 53f
2:50pm 5ft 6s 5s 20 25 mph 1013.4mb 52f 53f
1:50pm 5ft 6s 5s 18 22 mph 1014mb 52f 53f
12:50pm 5ft 15s 6s 20 25 mph 1014.4mb 52f 53f
11:50am 5ft 11s 5s 20 22 mph 1014.9mb 52f 53f
10:50am 5ft 9s 5s 20 22 mph 1015mb 52f 53f
9:50am 4.5ft 9s 5s 18 22 mph 1015.4mb 52f 53f
8:50am 4.5ft 10s 5s 18 22 mph 1015.6mb 52f 53f
7:50am 4.5ft 11s 5s 18 20 mph 1015.6mb 52f 52f
6:50am 4.5ft 10s 6s 16 18 mph 1015.9mb 52f 52f
5:50am 4.5ft 10s 5s 11 16 mph 1016mb 52f 53f
4:50am 4.5ft 11s 5s 16 18 mph 1016mb 51f 52f
3:50am 4.5ft 10s 6s 16 20 mph 1016.3mb 51f 52f
2:50am 4.5ft 16s 6s 16 20 mph 1016.7mb 52f 52f
1:50am 4.5ft 10s 6s 13 16 mph 1017.2mb 51f 52f
12:50am 4.5ft 11s 6s 13 18 mph 1017.4mb 51f 53f
Tue 05/19 11:50pm 4.5ft 11s 6s 18 20 mph 1017.4mb 52f 53f
10:50pm 4.5ft 11s 6s 13 16 mph 1017.9mb 53f 53f
9:50pm 4.5ft 9s 6s 16 18 mph 1018.1mb 53f 53f
8:50pm 4.5ft 9s 6s 18 20 mph 1018mb 52f 54f
7:50pm 5ft 11s 6s 13 18 mph 1018.2mb 52f 54f
6:50pm 5ft 10s 6s 16 18 mph 1018.1mb 52f 54f
5:50pm 5ft 11s 6s 16 18 mph 1018.5mb 53f 54f
4:50pm 6ft 10s 7s 13 16 mph 1019mb 53f 54f
3:50pm 5ft 10s 7s 13 16 mph 1019.4mb 53f 54f
2:50pm 6ft 11s 8s 13 16 mph 1020.2mb 52f 54f